Time;durP1;ratioP1;P1;durP2;ratioP2;P2;SDS_P1;SDS_P2;PMS_P1;PMS_P2;Temp;Humidity;BMP_temperature;BMP_pressure;BME280_temperature;BME280_humidity;BME280_pressure;Samples;Min_cycle;Max_cycle;Signal;HPM_P1;HPM_P2
2022/09/08 00:09:19;;;;;;;22.05;17.65;;;16.40;99.90;;;;;;20732277;28;20042;-53
2022/09/08 00:19:22;;;;;;;19.65;16.38;;;16.40;99.90;;;;;;20757001;28;20038;-52
2022/09/08 00:29:24;;;;;;;26.65;17.88;;;16.50;99.90;;;;;;20778440;28;20025;-52
2022/09/08 00:39:26;;;;;;;20.38;18.15;;;16.50;99.90;;;;;;20730104;28;20085;-53
2022/09/08 00:49:30;;;;;;;26.88;20.75;;;16.50;99.90;;;;;;20755450;28;20108;-50
2022/09/08 00:59:36;;;;;;;23.98;19.00;;;16.40;99.90;;;;;;20733437;28;20087;-50
2022/09/08 01:20:35;;;;;;;19.05;15.98;;;16.10;99.90;;;;;;20749961;28;20049;-59
2022/09/08 01:30:41;;;;;;;19.23;17.10;;;16.20;99.90;;;;;;20745481;28;20046;-53
2022/09/08 01:40:44;;;;;;;26.80;19.17;;;16.10;99.90;;;;;;20807841;28;20096;-51
2022/09/08 01:50:46;;;;;;;22.27;16.75;;;16.20;99.90;;;;;;20727299;28;20058;-49
2022/09/08 02:00:49;;;;;;;21.75;17.10;;;16.30;99.90;;;;;;20722355;28;20033;-49
2022/09/08 02:10:54;;;;;;;23.60;18.63;;;16.40;99.90;;;;;;20740865;28;20049;-59
2022/09/08 02:21:11;;;;;;;24.63;18.38;;;16.40;99.90;;;;;;20735160;28;20178;-51
2022/09/08 02:31:15;;;;;;;;;;;16.50;99.90;;;;;;20737465;28;20452;-52
2022/09/08 02:41:18;;;;;;;19.63;13.93;;;16.50;99.90;;;;;;20720388;28;19968;-59
2022/09/08 02:51:20;;;;;;;20.35;14.10;;;16.40;99.90;;;;;;20737715;28;20077;-50
2022/09/08 03:01:22;;;;;;;15.70;10.98;;;16.40;99.90;;;;;;20742297;28;20037;-50
2022/09/08 03:11:26;;;;;;;13.20;9.75;;;16.40;99.90;;;;;;20736099;28;20073;-49
2022/09/08 03:21:29;;;;;;;14.30;10.73;;;16.30;99.90;;;;;;20762874;28;20072;-52
2022/09/08 03:31:31;;;;;;;13.68;10.82;;;16.30;99.90;;;;;;20735056;28;20372;-60
2022/09/08 03:41:33;;;;;;;15.90;9.65;;;16.30;99.90;;;;;;20740201;28;20555;-60
2022/09/08 03:51:36;;;;;;;10.52;8.45;;;16.30;99.90;;;;;;20740499;28;20132;-50
2022/09/08 04:01:39;;;;;;;13.73;9.68;;;16.20;99.90;;;;;;20732165;28;20498;-50
2022/09/08 04:11:42;;;;;;;14.38;9.93;;;16.10;99.90;;;;;;20731990;28;20100;-59
2022/09/08 04:21:44;;;;;;;15.90;10.13;;;16.10;99.90;;;;;;20746941;28;20153;-60
2022/09/08 04:31:48;;;;;;;16.13;11.02;;;16.00;99.90;;;;;;20730543;28;20038;-53
2022/09/08 04:41:51;;;;;;;12.95;9.80;;;16.00;99.90;;;;;;20761791;28;20459;-52
2022/09/08 04:51:53;;;;;;;11.60;9.50;;;16.00;99.90;;;;;;20761857;28;20054;-51
2022/09/08 05:01:55;;;;;;;9.73;8.73;;;15.90;99.90;;;;;;20744409;28;20112;-60
2022/09/08 05:11:58;;;;;;;18.45;10.85;;;15.90;99.90;;;;;;20752372;28;20042;-49
2022/09/08 05:22:01;;;;;;;16.98;11.85;;;15.90;99.90;;;;;;20745452;28;20446;-51
2022/09/08 05:32:03;;;;;;;19.38;13.82;;;15.90;99.90;;;;;;20727622;28;20390;-52
2022/09/08 05:42:06;;;;;;;18.35;13.82;;;15.90;99.90;;;;;;20740666;28;20550;-61
2022/09/08 05:52:08;;;;;;;20.83;14.50;;;15.90;99.90;;;;;;20760303;28;20636;-58
2022/09/08 06:02:15;;;;;;;139.20;20.52;;;15.90;99.90;;;;;;20755289;28;20088;-50
2022/09/08 06:12:41;;;;;;;751.38;47.35;;;15.70;99.90;;;;;;20549260;28;21242;-63
2022/09/08 06:22:44;;;;;;;16.60;12.38;;;15.70;99.90;;;;;;20556536;28;20042;-62
2022/09/08 06:32:58;;;;;;;7.80;4.90;;;15.60;99.90;;;;;;20563970;28;20471;-50
2022/09/08 06:43:06;;;;;;;4.43;2.67;;;15.00;99.90;;;;;;20594984;28;20073;-49
2022/09/08 06:53:17;;;;;;;7.40;2.83;;;14.20;99.90;;;;;;20739894;28;20054;-59
2022/09/08 07:03:39;;;;;;;5.40;2.72;;;14.00;99.90;;;;;;20723174;28;20101;-46
2022/09/08 07:14:00;;;;;;;11.65;5.85;;;14.20;99.90;;;;;;20763760;28;20482;-48
2022/09/08 07:24:07;;;;;;;5.57;3.50;;;14.70;99.90;;;;;;20734200;28;20042;-46
2022/09/08 07:34:16;;;;;;;6.97;4.13;;;14.90;99.90;;;;;;20768779;28;20042;-59
2022/09/08 07:44:19;;;;;;;4.68;2.78;;;15.20;99.90;;;;;;20735849;28;20482;-58
2022/09/08 07:54:24;;;;;;;10.35;3.80;;;15.90;99.90;;;;;;20651146;28;20050;-47
2022/09/08 08:05:13;;;;;;;7.75;2.72;;;16.90;99.90;;;;;;20652897;28;20038;-47
2022/09/08 08:15:27;;;;;;;4.82;0.63;;;17.50;99.90;;;;;;20646506;28;20108;-61
2022/09/08 08:25:39;;;;;;;4.63;0.75;;;15.10;99.90;;;;;;20665149;28;20042;-46
2022/09/08 08:35:52;;;;;;;4.43;1.25;;;13.90;99.90;;;;;;20649974;28;20097;-51
2022/09/08 08:46:13;;;;;;;3.42;1.30;;;13.90;99.90;;;;;;20667394;28;20050;-60
2022/09/08 08:56:45;;;;;;;3.65;1.50;;;14.40;99.90;;;;;;20725493;28;20440;-50
2022/09/08 09:07:08;;;;;;;4.10;1.88;;;15.20;99.90;;;;;;20730617;28;20091;-60
2022/09/08 09:17:31;;;;;;;2.58;1.63;;;16.20;99.90;;;;;;20761123;28;20037;-59
2022/09/08 09:28:10;;;;;;;3.15;1.80;;;16.00;99.90;;;;;;20741804;28;20076;-51
2022/09/08 09:38:35;;;;;;;5.82;2.45;;;16.50;99.90;;;;;;20464205;29;20043;-45
2022/09/08 09:49:33;;;;;;;5.53;2.78;;;17.70;99.90;;;;;;20454960;28;20059;-46
2022/09/08 09:59:44;;;;;;;7.05;2.58;;;19.90;99.90;;;;;;20459441;28;20083;-46
2022/09/08 10:09:56;;;;;;;7.68;2.30;;;20.50;99.90;;;;;;20496544;28;20077;-46
2022/09/08 10:20:06;;;;;;;4.20;1.90;;;20.70;99.90;;;;;;20555723;28;20043;-45
2022/09/08 10:30:57;;;;;;;5.70;2.95;;;20.40;99.90;;;;;;20659941;28;20046;-49
2022/09/08 10:41:28;;;;;;;4.75;2.92;;;19.90;99.90;;;;;;20478449;29;20043;-58
2022/09/08 10:51:38;;;;;;;3.15;1.45;;;19.90;99.90;;;;;;20451636;29;20362;-50
2022/09/08 11:02:12;;;;;;;6.50;1.98;;;20.30;99.90;;;;;;20453244;28;20035;-47
2022/09/08 11:12:38;;;;;;;3.45;2.15;;;20.70;99.90;;;;;;20630590;28;20041;-58
2022/09/08 11:22:59;;;;;;;5.40;2.33;;;21.10;99.90;;;;;;20769754;28;20096;-47
2022/09/08 11:33:44;;;;;;;6.75;2.17;;;20.60;99.90;;;;;;20790254;28;20038;-46
2022/09/08 11:44:25;;;;;;;4.82;2.10;;;20.70;99.90;;;;;;20471747;28;20532;-46
2022/09/08 11:55:02;;;;;;;5.20;1.40;;;22.30;99.90;;;;;;20480376;28;20047;-47
2022/09/08 12:05:29;;;;;;;6.10;3.05;;;22.90;99.90;;;;;;20498943;28;20051;-46
2022/09/08 12:15:46;;;;;;;3.58;1.65;;;22.60;99.90;;;;;;20546824;28;20765;-56
2022/09/08 12:25:58;;;;;;;6.05;2.30;;;22.90;99.90;;;;;;20665592;28;20105;-48
2022/09/08 12:36:24;;;;;;;5.05;2.13;;;23.70;99.90;;;;;;20649259;28;20097;-58
2022/09/08 12:46:36;;;;;;;4.95;1.77;;;23.50;99.90;;;;;;20691953;28;20153;-48
2022/09/08 12:57:00;;;;;;;7.55;3.40;;;24.30;99.90;;;;;;20741761;28;20046;-50
2022/09/08 13:07:20;;;;;;;6.90;2.90;;;24.30;99.90;;;;;;20741014;28;20041;-59
2022/09/08 13:17:48;;;;;;;6.15;3.47;;;23.50;99.90;;;;;;20730494;28;20101;-59
2022/09/08 13:27:51;;;;;;;7.63;4.00;;;23.40;99.90;;;;;;20757630;28;20033;-59
2022/09/08 13:37:57;;;;;;;5.45;2.58;;;23.10;99.90;;;;;;20786089;28;20037;-59
2022/09/08 13:47:59;;;;;;;9.13;3.67;;;23.90;99.90;;;;;;20753548;28;20057;-47
2022/09/08 13:58:41;;;;;;;9.98;3.40;;;24.10;99.90;;;;;;20739805;28;20041;-48
2022/09/08 14:08:54;;;;;;;6.32;3.60;;;23.40;99.90;;;;;;20489441;28;20169;-59
2022/09/08 14:19:18;;;;;;;9.23;3.92;;;23.20;99.90;;;;;;20473149;28;20082;-59
2022/09/08 14:29:32;;;;;;;6.50;3.30;;;22.50;99.90;;;;;;20471613;28;20043;-60
2022/09/08 14:39:51;;;;;;;6.45;2.55;;;22.50;99.90;;;;;;20534960;28;20491;-60
2022/09/08 14:50:09;;;;;;;9.25;3.30;;;22.40;99.90;;;;;;20727176;28;20061;-48
2022/09/08 15:00:36;;;;;;;6.15;3.40;;;22.40;99.90;;;;;;20752725;28;20041;-59
2022/09/08 15:10:44;;;;;;;7.20;2.65;;;22.10;99.90;;;;;;20735750;28;20089;-59
2022/09/08 15:21:05;;;;;;;3.27;2.47;;;21.10;99.90;;;;;;20702689;28;20034;-50
2022/09/08 15:31:20;;;;;;;6.07;3.58;;;20.60;99.90;;;;;;20736243;28;20045;-58
2022/09/08 15:41:36;;;;;;;6.60;3.67;;;20.30;99.90;;;;;;20718318;28;20084;-58
2022/09/08 15:51:48;;;;;;;9.07;4.72;;;20.20;99.90;;;;;;20728893;28;20402;-49
2022/09/08 16:02:04;;;;;;;5.55;4.28;;;19.40;99.90;;;;;;20732213;28;20037;-58
2022/09/08 16:12:18;;;;;;;5.63;4.15;;;18.60;99.90;;;;;;20748153;28;20490;-58
2022/09/08 16:22:30;;;;;;;7.38;5.18;;;18.10;99.90;;;;;;20746790;28;20084;-59
2022/09/08 16:32:48;;;;;;;7.53;5.40;;;17.90;99.90;;;;;;20746039;28;20034;-58
2022/09/08 16:42:57;;;;;;;8.20;5.47;;;17.60;99.90;;;;;;20741300;28;20034;-58
2022/09/08 16:53:24;;;;;;;11.23;6.03;;;17.30;99.90;;;;;;20716145;28;20089;-58
2022/09/08 17:03:48;;;;;;;10.07;7.75;;;16.90;99.90;;;;;;20760647;28;20045;-50
2022/09/08 17:13:50;;;;;;;11.32;7.10;;;16.40;99.90;;;;;;20726489;28;20038;-49
2022/09/08 17:24:15;;;;;;;11.35;7.30;;;16.10;99.90;;;;;;20724860;28;20041;-48
2022/09/08 17:34:37;;;;;;;12.75;10.10;;;15.70;99.90;;;;;;20777131;28;20449;-48
2022/09/08 17:44:57;;;;;;;17.15;11.18;;;15.50;99.90;;;;;;20741098;28;20022;-57
2022/09/08 17:55:27;;;;;;;17.20;11.85;;;15.50;99.90;;;;;;20657002;28;20085;-50
2022/09/08 18:05:31;;;;;;;22.30;16.15;;;15.40;99.90;;;;;;20697308;28;20495;-58
2022/09/08 18:15:34;;;;;;;18.85;13.68;;;15.10;99.90;;;;;;20696341;28;20026;-46
2022/09/08 18:25:58;;;;;;;16.13;10.70;;;14.90;99.90;;;;;;20712073;28;20037;-49
2022/09/08 18:36:10;;;;;;;11.38;8.55;;;14.50;99.90;;;;;;20678421;28;20394;-52
2022/09/08 18:46:24;;;;;;;8.63;4.05;;;14.30;99.90;;;;;;20707176;28;20096;-60
2022/09/08 18:56:35;;;;;;;5.82;2.72;;;14.00;99.90;;;;;;20692687;28;20034;-54
2022/09/08 19:06:45;;;;;;;6.75;2.45;;;13.50;99.90;;;;;;20672287;28;20050;-55
2022/09/08 19:17:09;;;;;;;7.15;2.70;;;13.40;99.90;;;;;;20671971;28;20038;-55
2022/09/08 19:28:03;;;;;;;11.23;5.00;;;13.20;99.90;;;;;;20690959;28;20089;-56
2022/09/08 19:38:09;;;;;;;8.00;5.20;;;13.40;99.90;;;;;;20401251;28;20510;-51
2022/09/08 19:48:40;;;;;;;9.93;7.15;;;13.70;99.90;;;;;;20375537;29;20048;-53
2022/09/08 19:58:46;;;;;;;12.70;7.97;;;13.60;99.90;;;;;;20362648;29;20072;-59
2022/09/08 20:08:52;;;;;;;14.00;10.93;;;13.40;99.90;;;;;;20614280;28;20085;-51
2022/09/08 20:19:20;;;;;;;18.15;10.88;;;13.20;99.90;;;;;;20653074;28;20184;-49
2022/09/08 20:29:44;;;;;;;15.27;9.93;;;13.00;99.90;;;;;;20667740;28;20550;-57
2022/09/08 20:40:06;;;;;;;14.98;9.98;;;12.80;99.90;;;;;;20648386;28;20121;-49
2022/09/08 20:50:18;;;;;;;16.92;10.07;;;12.70;99.90;;;;;;20685236;28;20045;-46
2022/09/08 21:00:25;;;;;;;11.75;7.47;;;12.50;99.90;;;;;;20760043;28;20076;-59
2022/09/08 21:10:32;;;;;;;12.85;7.97;;;12.50;99.90;;;;;;20741911;28;20037;-59
2022/09/08 21:20:45;;;;;;;13.85;6.75;;;12.40;99.90;;;;;;20732179;28;20348;-59
2022/09/08 21:30:54;;;;;;;9.38;6.55;;;12.40;99.90;;;;;;20744844;28;20569;-50
2022/09/08 21:41:18;;;;;;;10.82;5.47;;;12.50;99.90;;;;;;20729738;28;20029;-49
2022/09/08 21:51:58;;;;;;;9.85;5.18;;;12.50;99.90;;;;;;20723297;28;20045;-57
2022/09/08 22:02:09;;;;;;;16.58;5.00;;;12.60;99.90;;;;;;20727744;28;20149;-46
2022/09/08 22:12:39;;;;;;;10.15;4.20;;;12.70;99.90;;;;;;20739917;28;20041;-57
2022/09/08 22:22:49;;;;;;;8.55;4.47;;;12.60;99.90;;;;;;20725588;28;20145;-55
2022/09/08 22:33:11;;;;;;;8.35;3.90;;;12.50;99.90;;;;;;20738523;28;20092;-48
2022/09/08 22:43:34;;;;;;;9.85;5.07;;;12.50;99.90;;;;;;20721757;28;20088;-51
2022/09/08 22:53:38;;;;;;;10.90;5.53;;;12.30;99.90;;;;;;20721400;28;20100;-48
2022/09/08 23:03:47;;;;;;;8.65;5.63;;;12.30;99.90;;;;;;20716665;28;20082;-57
2022/09/08 23:14:04;;;;;;;14.00;6.60;;;12.20;99.90;;;;;;20719666;28;20424;-57
2022/09/08 23:24:31;;;;;;;10.27;5.80;;;12.20;99.90;;;;;;20735441;28;20068;-58
2022/09/08 23:34:56;;;;;;;12.63;7.25;;;12.20;99.90;;;;;;20718620;28;20096;-57
2022/09/08 23:44:59;;;;;;;11.45;5.97;;;12.10;99.90;;;;;;20722481;28;20030;-58
2022/09/08 23:55:03;;;;;;;11.48;7.10;;;12.20;99.90;;;;;;20718247;28;20073;-50
